Miltiadis Junior — D5FV2 — position and weather

sailwx.info

Track history (hours):
 
Tides and Currents Weather Stations Pressure Air Temp Water Temp Dewpoint Dewpoint Depression Visibility Wind Speed Wind Dir Waves Ship Positions

Miltiadis Junior

Last reported at 2018-Jan-11 14:48 UTC. Time now 2018-Jan-18 02:27 UTC.
Position N 36°26' E 013°46'.

Length 333 m; draft 20.1 m.

Type: Tanker. MMSI: 636016370.

Date/timePositionNaut miles runAvg speedWind from/ knotsBaromVisibWave heightAir tempDewpointWater temp
2018-Jan-11 14:48N 36°26' E 013°46'412.7
2018-Jan-11 14:29N 36°25' E 013°51'713.1
2018-Jan-11 13:57N 36°22' E 013°58'613.3
2018-Jan-11 13:30N 36°19' E 014°05'713.5
2018-Jan-11 13:00N 36°16' E 014°13'713.7
2018-Jan-11 12:30N 36°13' E 014°21'713.6
2018-Jan-11 12:00N 36°11' E 014°28'713.5
2018-Jan-11 11:30N 36°08' E 014°36'713.3
2018-Jan-11 11:00N 36°06' E 014°44'913.3
2018-Jan-11 10:20N 36°03' E 014°54'33412.7
2018-Jan-10 08:00N 33°60' E 021°13'612.6
2018-Jan-10 07:30N 33°57' E 021°20'612.7
2018-Jan-10 07:00N 33°55' E 021°27'713.1
2018-Jan-10 06:30N 33°53' E 021°35'913.3
2018-Jan-10 05:50N 33°49' E 021°45'413.4
2018-Jan-10 05:30N 33°48' E 021°50'713.6
2018-Jan-10 05:00N 33°45' E 021°57'813.5
2018-Jan-10 04:25N 33°42' E 022°06'13613.1
2018-Jan-09 17:59N 32°51' E 024°37'1613.2
2018-Jan-09 16:45N 32°45' E 024°55'413.3
2018-Jan-09 16:28N 32°43' E 024°59'813.4
2018-Jan-09 15:52N 32°40' E 025°08'  
Track history (hours):
 
Tides and Currents Weather Stations Pressure Air Temp Water Temp Dewpoint Dewpoint Depression Visibility Wind Speed Wind Dir Waves Ship Positions

Miltiadis Junior

Last reported at 2018-Jan-11 14:48 UTC. Time now 2018-Jan-18 02:27 UTC.
Position N 36°26' E 013°46'.

Length 333 m; draft 20.1 m.

Type: Tanker. MMSI: 636016370.

Date/timePositionNaut miles runAvg speedWind from/ knotsBaromVisibWave heightAir tempDewpointWater temp
2018-Jan-11 14:48N 36°26' E 013°46'412.7
2018-Jan-11 14:29N 36°25' E 013°51'713.1
2018-Jan-11 13:57N 36°22' E 013°58'613.3
2018-Jan-11 13:30N 36°19' E 014°05'713.5
2018-Jan-11 13:00N 36°16' E 014°13'713.7
2018-Jan-11 12:30N 36°13' E 014°21'713.6
2018-Jan-11 12:00N 36°11' E 014°28'713.5
2018-Jan-11 11:30N 36°08' E 014°36'713.3
2018-Jan-11 11:00N 36°06' E 014°44'913.3
2018-Jan-11 10:20N 36°03' E 014°54'33412.7
2018-Jan-10 08:00N 33°60' E 021°13'612.6
2018-Jan-10 07:30N 33°57' E 021°20'612.7
2018-Jan-10 07:00N 33°55' E 021°27'713.1
2018-Jan-10 06:30N 33°53' E 021°35'913.3
2018-Jan-10 05:50N 33°49' E 021°45'413.4
2018-Jan-10 05:30N 33°48' E 021°50'713.6
2018-Jan-10 05:00N 33°45' E 021°57'813.5
2018-Jan-10 04:25N 33°42' E 022°06'13613.1
2018-Jan-09 17:59N 32°51' E 024°37'1613.2
2018-Jan-09 16:45N 32°45' E 024°55'413.3
2018-Jan-09 16:28N 32°43' E 024°59'813.4
2018-Jan-09 15:52N 32°40' E 025°08'  

Dump ship's entire track history